sensor_id;sensor_type;location;lat;lon;timestamp;temperature;humidity
26272;DHT22;13997;48.902;12.472;2023-07-31T00:01:48;410.10;2355.20
26272;DHT22;13997;48.902;12.472;2023-07-31T00:04:14;410.10;2355.20
26272;DHT22;13997;48.902;12.472;2023-07-31T00:06:39;410.10;2355.20
26272;DHT22;13997;48.902;12.472;2023-07-31T00:09:05;410.10;2355.20
26272;DHT22;13997;48.902;12.472;2023-07-31T00:11:31;410.00;2355.20
26272;DHT22;13997;48.902;12.472;2023-07-31T00:13:57;410.00;2355.20
26272;DHT22;13997;48.902;12.472;2023-07-31T00:16:23;410.00;2355.20
26272;DHT22;13997;48.902;12.472;2023-07-31T00:18:49;410.00;2355.20
26272;DHT22;13997;48.902;12.472;2023-07-31T00:21:14;409.90;2355.20
26272;DHT22;13997;48.902;12.472;2023-07-31T00:23:40;409.90;2355.20
26272;DHT22;13997;48.902;12.472;2023-07-31T00:26:05;409.90;2355.20
26272;DHT22;13997;48.902;12.472;2023-07-31T00:28:31;409.80;2355.20
26272;DHT22;13997;48.902;12.472;2023-07-31T00:30:56;409.80;2355.20
26272;DHT22;13997;48.902;12.472;2023-07-31T00:33:22;409.80;2355.20
26272;DHT22;13997;48.902;12.472;2023-07-31T00:35:48;409.70;2355.20
26272;DHT22;13997;48.902;12.472;2023-07-31T00:38:14;409.70;2355.20
26272;DHT22;13997;48.902;12.472;2023-07-31T00:40:39;409.70;2355.20
26272;DHT22;13997;48.902;12.472;2023-07-31T00:43:05;384.90;2329.60
26272;DHT22;13997;48.902;12.472;2023-07-31T00:45:32;384.90;2329.60
26272;DHT22;13997;48.902;12.472;2023-07-31T00:47:58;384.80;2329.60
26272;DHT22;13997;48.902;12.472;2023-07-31T00:50:24;384.80;2329.60
26272;DHT22;13997;48.902;12.472;2023-07-31T00:52:50;384.70;2329.60
26272;DHT22;13997;48.902;12.472;2023-07-31T00:55:17;384.60;2329.60
26272;DHT22;13997;48.902;12.472;2023-07-31T00:57:43;384.60;2329.60
26272;DHT22;13997;48.902;12.472;2023-07-31T01:00:10;384.60;2329.60
26272;DHT22;13997;48.902;12.472;2023-07-31T01:02:36;384.60;2329.60
26272;DHT22;13997;48.902;12.472;2023-07-31T01:05:03;384.60;2329.60
26272;DHT22;13997;48.902;12.472;2023-07-31T01:07:39;384.60;2329.60
26272;DHT22;13997;48.902;12.472;2023-07-31T01:10:15;384.50;2329.60
26272;DHT22;13997;48.902;12.472;2023-07-31T01:12:42;384.50;2329.60
26272;DHT22;13997;48.902;12.472;2023-07-31T01:15:09;384.30;2329.60
26272;DHT22;13997;48.902;12.472;2023-07-31T01:17:41;384.30;2329.60
26272;DHT22;13997;48.902;12.472;2023-07-31T01:20:11;384.30;2329.60
26272;DHT22;13997;48.902;12.472;2023-07-31T01:28:08;384.10;2329.60
26272;DHT22;13997;48.902;12.472;2023-07-31T01:30:39;384.00;2329.60
26272;DHT22;13997;48.902;12.472;2023-07-31T01:33:06;384.00;2329.60
26272;DHT22;13997;48.902;12.472;2023-07-31T01:35:37;384.00;2329.60
26272;DHT22;13997;48.902;12.472;2023-07-31T01:38:02;384.00;2329.60
26272;DHT22;13997;48.902;12.472;2023-07-31T01:40:28;359.30;2329.60
26272;DHT22;13997;48.902;12.472;2023-07-31T01:42:54;359.30;2329.60
26272;DHT22;13997;48.902;12.472;2023-07-31T01:45:19;359.30;2329.60
26272;DHT22;13997;48.902;12.472;2023-07-31T01:47:45;359.30;2329.60
26272;DHT22;13997;48.902;12.472;2023-07-31T01:50:11;384.00;2329.60
26272;DHT22;13997;48.902;12.472;2023-07-31T01:52:36;384.00;2329.60
26272;DHT22;13997;48.902;12.472;2023-07-31T01:55:02;384.00;2329.60
26272;DHT22;13997;48.902;12.472;2023-07-31T01:57:28;384.00;2329.60
26272;DHT22;13997;48.902;12.472;2023-07-31T01:59:53;384.10;2329.60
26272;DHT22;13997;48.902;12.472;2023-07-31T02:02:22;384.10;2329.60
26272;DHT22;13997;48.902;12.472;2023-07-31T02:04:48;384.10;2329.60
26272;DHT22;13997;48.902;12.472;2023-07-31T02:07:14;384.10;2329.60
26272;DHT22;13997;48.902;12.472;2023-07-31T02:09:40;384.10;2329.60
26272;DHT22;13997;48.902;12.472;2023-07-31T02:12:06;384.10;2329.60
26272;DHT22;13997;48.902;12.472;2023-07-31T02:14:34;384.10;2329.60
26272;DHT22;13997;48.902;12.472;2023-07-31T02:16:59;384.10;2329.60
26272;DHT22;13997;48.902;12.472;2023-07-31T02:19:25;384.10;2329.60
26272;DHT22;13997;48.902;12.472;2023-07-31T02:21:50;384.10;2329.60
26272;DHT22;13997;48.902;12.472;2023-07-31T02:24:16;384.10;2329.60
26272;DHT22;13997;48.902;12.472;2023-07-31T02:26:42;384.10;2329.60
26272;DHT22;13997;48.902;12.472;2023-07-31T02:29:08;384.20;2329.60
26272;DHT22;13997;48.902;12.472;2023-07-31T02:31:34;384.20;2329.60
26272;DHT22;13997;48.902;12.472;2023-07-31T02:33:59;384.10;2329.60
26272;DHT22;13997;48.902;12.472;2023-07-31T02:36:25;384.10;2329.60
26272;DHT22;13997;48.902;12.472;2023-07-31T02:38:50;384.10;2329.60
26272;DHT22;13997;48.902;12.472;2023-07-31T02:41:19;384.00;2329.60
26272;DHT22;13997;48.902;12.472;2023-07-31T03:01:03;359.20;2329.60
26272;DHT22;13997;48.902;12.472;2023-07-31T03:03:29;359.10;2329.60
26272;DHT22;13997;48.902;12.472;2023-07-31T03:05:54;359.10;2329.60
26272;DHT22;13997;48.902;12.472;2023-07-31T03:08:20;359.00;2329.60
26272;DHT22;13997;48.902;12.472;2023-07-31T03:10:46;359.00;2329.60
26272;DHT22;13997;48.902;12.472;2023-07-31T03:13:11;358.90;2329.60
26272;DHT22;13997;48.902;12.472;2023-07-31T03:15:37;358.90;2329.60
26272;DHT22;13997;48.902;12.472;2023-07-31T03:18:03;358.80;2329.60
26272;DHT22;13997;48.902;12.472;2023-07-31T03:20:28;358.80;2329.60
26272;DHT22;13997;48.902;12.472;2023-07-31T03:22:54;358.80;2329.60
26272;DHT22;13997;48.902;12.472;2023-07-31T03:25:19;358.80;2329.60
26272;DHT22;13997;48.902;12.472;2023-07-31T03:27:45;358.80;2329.60
26272;DHT22;13997;48.902;12.472;2023-07-31T03:30:10;358.70;2329.60
26272;DHT22;13997;48.902;12.472;2023-07-31T03:32:36;358.70;2329.60
26272;DHT22;13997;48.902;12.472;2023-07-31T03:35:02;358.70;2329.60
26272;DHT22;13997;48.902;12.472;2023-07-31T03:37:27;358.70;2329.60
26272;DHT22;13997;48.902;12.472;2023-07-31T03:39:54;358.70;2329.60
26272;DHT22;13997;48.902;12.472;2023-07-31T03:42:20;358.70;2329.60
26272;DHT22;13997;48.902;12.472;2023-07-31T03:44:45;358.80;2329.60
26272;DHT22;13997;48.902;12.472;2023-07-31T03:47:11;358.80;2329.60
26272;DHT22;13997;48.902;12.472;2023-07-31T03:49:36;358.70;2329.60
26272;DHT22;13997;48.902;12.472;2023-07-31T03:52:02;358.70;2329.60
26272;DHT22;13997;48.902;12.472;2023-07-31T03:54:28;358.70;2329.60
26272;DHT22;13997;48.902;12.472;2023-07-31T03:56:53;358.70;2329.60
26272;DHT22;13997;48.902;12.472;2023-07-31T03:59:19;358.70;2329.60
26272;DHT22;13997;48.902;12.472;2023-07-31T04:01:44;358.60;2329.60
26272;DHT22;13997;48.902;12.472;2023-07-31T04:04:10;358.60;2329.60
26272;DHT22;13997;48.902;12.472;2023-07-31T04:06:36;358.60;2329.60
26272;DHT22;13997;48.902;12.472;2023-07-31T04:09:02;358.60;2329.60
26272;DHT22;13997;48.902;12.472;2023-07-31T04:11:27;358.50;2329.60
26272;DHT22;13997;48.902;12.472;2023-07-31T04:13:53;358.50;2329.60
26272;DHT22;13997;48.902;12.472;2023-07-31T04:16:19;358.50;2329.60
26272;DHT22;13997;48.902;12.472;2023-07-31T04:18:44;358.50;2329.60
26272;DHT22;13997;48.902;12.472;2023-07-31T04:21:10;358.50;2329.60
26272;DHT22;13997;48.902;12.472;2023-07-31T04:23:35;358.50;2329.60
26272;DHT22;13997;48.902;12.472;2023-07-31T04:26:01;358.50;2329.60
26272;DHT22;13997;48.902;12.472;2023-07-31T04:28:27;358.50;2329.60
26272;DHT22;13997;48.902;12.472;2023-07-31T04:30:52;358.50;2329.60
26272;DHT22;13997;48.902;12.472;2023-07-31T04:33:18;358.60;2329.60
26272;DHT22;13997;48.902;12.472;2023-07-31T04:35:53;358.60;2329.60
26272;DHT22;13997;48.902;12.472;2023-07-31T04:38:19;358.60;2329.60
26272;DHT22;13997;48.902;12.472;2023-07-31T04:40:45;358.60;2329.60
26272;DHT22;13997;48.902;12.472;2023-07-31T04:43:11;358.60;2329.60
26272;DHT22;13997;48.902;12.472;2023-07-31T04:45:37;358.70;2329.60
26272;DHT22;13997;48.902;12.472;2023-07-31T04:48:02;358.70;2329.60
26272;DHT22;13997;48.902;12.472;2023-07-31T04:50:28;358.70;2329.60
26272;DHT22;13997;48.902;12.472;2023-07-31T04:52:55;358.70;2329.60
26272;DHT22;13997;48.902;12.472;2023-07-31T04:55:21;358.70;2329.60
26272;DHT22;13997;48.902;12.472;2023-07-31T04:57:46;358.70;2329.60
26272;DHT22;13997;48.902;12.472;2023-07-31T05:00:12;358.80;2329.60
26272;DHT22;13997;48.902;12.472;2023-07-31T05:02:38;358.90;2329.60
26272;DHT22;13997;48.902;12.472;2023-07-31T05:05:04;358.90;2329.60
26272;DHT22;13997;48.902;12.472;2023-07-31T05:07:29;359.00;2329.60
26272;DHT22;13997;48.902;12.472;2023-07-31T05:09:55;359.10;2329.60
26272;DHT22;13997;48.902;12.472;2023-07-31T05:12:20;359.10;2329.60
26272;DHT22;13997;48.902;12.472;2023-07-31T05:14:46;359.20;2329.60
26272;DHT22;13997;48.902;12.472;2023-07-31T05:17:12;359.20;2329.60
26272;DHT22;13997;48.902;12.472;2023-07-31T05:19:37;359.30;2329.60
26272;DHT22;13997;48.902;12.472;2023-07-31T05:22:03;384.00;2329.60
26272;DHT22;13997;48.902;12.472;2023-07-31T05:24:29;384.10;2329.60
26272;DHT22;13997;48.902;12.472;2023-07-31T05:26:55;384.20;2329.60
26272;DHT22;13997;48.902;12.472;2023-07-31T05:29:21;384.30;2329.60
26272;DHT22;13997;48.902;12.472;2023-07-31T05:31:47;384.50;2329.60
26272;DHT22;13997;48.902;12.472;2023-07-31T05:34:12;384.70;2329.60
26272;DHT22;13997;48.902;12.472;2023-07-31T05:36:38;384.90;2329.60
26272;DHT22;13997;48.902;12.472;2023-07-31T05:39:04;409.70;2355.20
26272;DHT22;13997;48.902;12.472;2023-07-31T05:41:32;409.70;2355.20
26272;DHT22;13997;48.902;12.472;2023-07-31T05:43:58;409.70;2355.20
26272;DHT22;13997;48.902;12.472;2023-07-31T05:46:23;409.80;2355.20
26272;DHT22;13997;48.902;12.472;2023-07-31T05:48:49;409.80;2355.20
26272;DHT22;13997;48.902;12.472;2023-07-31T05:51:15;409.90;2355.20
26272;DHT22;13997;48.902;12.472;2023-07-31T05:53:41;410.00;2355.20
26272;DHT22;13997;48.902;12.472;2023-07-31T05:56:06;409.90;2355.20
26272;DHT22;13997;48.902;12.472;2023-07-31T05:58:32;409.90;2355.20
26272;DHT22;13997;48.902;12.472;2023-07-31T06:00:57;410.00;2355.20
26272;DHT22;13997;48.902;12.472;2023-07-31T06:03:23;410.10;2355.20
26272;DHT22;13997;48.902;12.472;2023-07-31T06:05:48;410.30;2355.20
26272;DHT22;13997;48.902;12.472;2023-07-31T06:08:14;410.50;2355.20
26272;DHT22;13997;48.902;12.472;2023-07-31T06:10:40;435.30;2355.20
26272;DHT22;13997;48.902;12.472;2023-07-31T06:13:05;435.40;2355.20
26272;DHT22;13997;48.902;12.472;2023-07-31T06:15:31;435.50;2355.20
26272;DHT22;13997;48.902;12.472;2023-07-31T06:17:56;435.80;2355.20
26272;DHT22;13997;48.902;12.472;2023-07-31T06:20:22;435.90;2355.20
26272;DHT22;13997;48.902;12.472;2023-07-31T06:22:48;436.10;2355.20
26272;DHT22;13997;48.902;12.472;2023-07-31T06:25:14;460.80;2380.80
26272;DHT22;13997;48.902;12.472;2023-07-31T06:27:39;461.00;2380.80
26272;DHT22;13997;48.902;12.472;2023-07-31T06:30:05;461.20;2380.80
26272;DHT22;13997;48.902;12.472;2023-07-31T06:32:31;461.30;2380.80
26272;DHT22;13997;48.902;12.472;2023-07-31T06:34:57;461.50;2380.80
26272;DHT22;13997;48.902;12.472;2023-07-31T06:37:22;461.60;2380.80
26272;DHT22;13997;48.902;12.472;2023-07-31T06:39:48;461.70;2380.80
26272;DHT22;13997;48.902;12.472;2023-07-31T06:42:14;486.50;2380.80
26272;DHT22;13997;48.902;12.472;2023-07-31T06:44:39;486.50;2380.80
26272;DHT22;13997;48.902;12.472;2023-07-31T06:47:05;486.50;2380.80
26272;DHT22;13997;48.902;12.472;2023-07-31T06:49:30;486.60;2380.80
26272;DHT22;13997;48.902;12.472;2023-07-31T06:51:56;486.70;2380.80
26272;DHT22;13997;48.902;12.472;2023-07-31T06:54:22;486.70;2380.80
26272;DHT22;13997;48.902;12.472;2023-07-31T06:56:47;486.90;2380.80
26272;DHT22;13997;48.902;12.472;2023-07-31T06:59:13;487.00;2380.80
26272;DHT22;13997;48.902;12.472;2023-07-31T07:01:38;487.10;2380.80
26272;DHT22;13997;48.902;12.472;2023-07-31T07:04:04;487.30;2380.80
26272;DHT22;13997;48.902;12.472;2023-07-31T07:06:30;487.30;2380.80
26272;DHT22;13997;48.902;12.472;2023-07-31T07:08:56;512.00;2380.80
26272;DHT22;13997;48.902;12.472;2023-07-31T07:11:22;512.00;2380.80
26272;DHT22;13997;48.902;12.472;2023-07-31T07:13:48;512.10;2380.80
26272;DHT22;13997;48.902;12.472;2023-07-31T07:16:14;512.10;2380.80
26272;DHT22;13997;48.902;12.472;2023-07-31T07:18:40;512.20;2380.80
26272;DHT22;13997;48.902;12.472;2023-07-31T07:21:05;512.30;2380.80
26272;DHT22;13997;48.902;12.472;2023-07-31T07:23:31;512.40;2380.80
26272;DHT22;13997;48.902;12.472;2023-07-31T07:25:56;512.60;2380.80
26272;DHT22;13997;48.902;12.472;2023-07-31T07:28:22;512.60;2380.80
26272;DHT22;13997;48.902;12.472;2023-07-31T07:30:54;512.80;2380.80
26272;DHT22;13997;48.902;12.472;2023-07-31T07:33:20;537.60;2406.40
26272;DHT22;13997;48.902;12.472;2023-07-31T07:35:45;537.60;2406.40
26272;DHT22;13997;48.902;12.472;2023-07-31T07:38:13;537.60;2406.40
26272;DHT22;13997;48.902;12.472;2023-07-31T07:40:40;537.70;2406.40
26272;DHT22;13997;48.902;12.472;2023-07-31T07:43:05;537.90;2406.40
26272;DHT22;13997;48.902;12.472;2023-07-31T07:45:31;537.90;2406.40
26272;DHT22;13997;48.902;12.472;2023-07-31T07:47:57;538.00;2406.40
26272;DHT22;13997;48.902;12.472;2023-07-31T07:50:23;538.00;2406.40
26272;DHT22;13997;48.902;12.472;2023-07-31T07:52:48;538.00;2406.40
26272;DHT22;13997;48.902;12.472;2023-07-31T07:55:14;538.00;2406.40
26272;DHT22;13997;48.902;12.472;2023-07-31T07:57:40;537.90;2406.40
26272;DHT22;13997;48.902;12.472;2023-07-31T08:00:06;537.80;2406.40
26272;DHT22;13997;48.902;12.472;2023-07-31T08:02:31;537.80;2406.40
26272;DHT22;13997;48.902;12.472;2023-07-31T08:04:57;537.90;2406.40
26272;DHT22;13997;48.902;12.472;2023-07-31T08:07:24;537.90;2406.40
26272;DHT22;13997;48.902;12.472;2023-07-31T08:09:49;537.90;2406.40
26272;DHT22;13997;48.902;12.472;2023-07-31T08:12:15;537.90;2406.40
26272;DHT22;13997;48.902;12.472;2023-07-31T08:14:41;537.90;2406.40
26272;DHT22;13997;48.902;12.472;2023-07-31T08:17:06;538.00;2406.40
26272;DHT22;13997;48.902;12.472;2023-07-31T08:19:32;538.20;2406.40
26272;DHT22;13997;48.902;12.472;2023-07-31T08:21:57;538.40;2406.40
26272;DHT22;13997;48.902;12.472;2023-07-31T08:24:23;563.30;2432.00
26272;DHT22;13997;48.902;12.472;2023-07-31T08:26:49;563.30;2432.00
26272;DHT22;13997;48.902;12.472;2023-07-31T08:29:14;563.40;2432.00
26272;DHT22;13997;48.902;12.472;2023-07-31T08:31:40;563.60;2432.00
26272;DHT22;13997;48.902;12.472;2023-07-31T08:34:05;563.80;2432.00
26272;DHT22;13997;48.902;12.472;2023-07-31T08:36:31;563.90;2432.00
26272;DHT22;13997;48.902;12.472;2023-07-31T08:38:57;563.90;2432.00
26272;DHT22;13997;48.902;12.472;2023-07-31T08:41:22;563.90;2432.00
26272;DHT22;13997;48.902;12.472;2023-07-31T08:43:50;563.90;2432.00
26272;DHT22;13997;48.902;12.472;2023-07-31T08:46:16;563.80;2432.00
26272;DHT22;13997;48.902;12.472;2023-07-31T08:48:42;563.60;2432.00
26272;DHT22;13997;48.902;12.472;2023-07-31T08:51:09;563.40;2432.00
26272;DHT22;13997;48.902;12.472;2023-07-31T08:53:35;563.30;2432.00
26272;DHT22;13997;48.902;12.472;2023-07-31T08:56:01;563.30;2432.00
26272;DHT22;13997;48.902;12.472;2023-07-31T08:58:31;563.20;2432.00
26272;DHT22;13997;48.902;12.472;2023-07-31T09:00:57;563.20;2432.00
26272;DHT22;13997;48.902;12.472;2023-07-31T09:03:25;563.20;2432.00
26272;DHT22;13997;48.902;12.472;2023-07-31T09:05:51;563.20;2432.00
26272;DHT22;13997;48.902;12.472;2023-07-31T09:08:21;563.20;2432.00
26272;DHT22;13997;48.902;12.472;2023-07-31T09:10:47;563.20;2432.00
26272;DHT22;13997;48.902;12.472;2023-07-31T09:13:15;563.30;2432.00
26272;DHT22;13997;48.902;12.472;2023-07-31T09:15:44;563.30;2432.00
26272;DHT22;13997;48.902;12.472;2023-07-31T09:18:10;563.30;2432.00
26272;DHT22;13997;48.902;12.472;2023-07-31T09:20:36;563.40;2432.00
26272;DHT22;13997;48.902;12.472;2023-07-31T09:23:07;563.60;2432.00
26272;DHT22;13997;48.902;12.472;2023-07-31T09:25:33;563.70;2432.00
26272;DHT22;13997;48.902;12.472;2023-07-31T09:28:01;563.90;2432.00
26272;DHT22;13997;48.902;12.472;2023-07-31T09:30:27;564.00;2432.00
26272;DHT22;13997;48.902;12.472;2023-07-31T09:33:02;588.80;2432.00
26272;DHT22;13997;48.902;12.472;2023-07-31T09:35:30;588.90;2432.00
26272;DHT22;13997;48.902;12.472;2023-07-31T09:37:58;589.00;2432.00
26272;DHT22;13997;48.902;12.472;2023-07-31T09:40:30;589.30;2432.00
26272;DHT22;13997;48.902;12.472;2023-07-31T09:43:04;589.40;2432.00
26272;DHT22;13997;48.902;12.472;2023-07-31T09:45:34;589.50;2432.00
26272;DHT22;13997;48.902;12.472;2023-07-31T09:47:59;589.60;2432.00
26272;DHT22;13997;48.902;12.472;2023-07-31T09:50:25;589.60;2432.00
26272;DHT22;13997;48.902;12.472;2023-07-31T09:52:51;589.50;2432.00
26272;DHT22;13997;48.902;12.472;2023-07-31T09:55:18;589.50;2432.00
26272;DHT22;13997;48.902;12.472;2023-07-31T09:57:46;589.40;2432.00
26272;DHT22;13997;48.902;12.472;2023-07-31T10:00:13;589.30;2432.00
26272;DHT22;13997;48.902;12.472;2023-07-31T10:02:39;589.30;2432.00
26272;DHT22;13997;48.902;12.472;2023-07-31T10:05:06;589.30;2432.00
26272;DHT22;13997;48.902;12.472;2023-07-31T10:07:37;589.30;2432.00
26272;DHT22;13997;48.902;12.472;2023-07-31T10:10:07;589.40;2432.00
26272;DHT22;13997;48.902;12.472;2023-07-31T10:12:35;589.40;2432.00
26272;DHT22;13997;48.902;12.472;2023-07-31T10:15:04;589.40;2432.00
26272;DHT22;13997;48.902;12.472;2023-07-31T10:17:31;589.60;2432.00
26272;DHT22;13997;48.902;12.472;2023-07-31T10:20:02;589.70;2432.00
26272;DHT22;13997;48.902;12.472;2023-07-31T10:22:30;614.40;2432.00
26272;DHT22;13997;48.902;12.472;2023-07-31T10:24:59;614.50;2432.00
26272;DHT22;13997;48.902;12.472;2023-07-31T10:27:25;614.70;2432.00
26272;DHT22;13997;48.902;12.472;2023-07-31T10:29:54;615.00;2432.00
26272;DHT22;13997;48.902;12.472;2023-07-31T10:32:20;615.10;2432.00
26272;DHT22;13997;48.902;12.472;2023-07-31T10:34:48;615.20;2432.00
26272;DHT22;13997;48.902;12.472;2023-07-31T10:37:30;640.00;2432.00
26272;DHT22;13997;48.902;12.472;2023-07-31T10:40:11;640.00;2432.00
26272;DHT22;13997;48.902;12.472;2023-07-31T10:42:54;640.10;2432.00
26272;DHT22;13997;48.902;12.472;2023-07-31T10:45:32;640.20;2432.00
26272;DHT22;13997;48.902;12.472;2023-07-31T10:48:02;640.50;2432.00
26272;DHT22;13997;48.902;12.472;2023-07-31T10:50:30;640.50;2432.00
26272;DHT22;13997;48.902;12.472;2023-07-31T10:52:58;640.50;2432.00
26272;DHT22;13997;48.902;12.472;2023-07-31T10:55:29;640.30;2432.00
26272;DHT22;13997;48.902;12.472;2023-07-31T10:57:57;640.20;2432.00
26272;DHT22;13997;48.902;12.472;2023-07-31T11:00:29;640.20;2432.00
26272;DHT22;13997;48.902;12.472;2023-07-31T11:03:00;640.10;2432.00
26272;DHT22;13997;48.902;12.472;2023-07-31T11:08:17;640.10;2432.00
26272;DHT22;13997;48.902;12.472;2023-07-31T11:10:44;640.20;2432.00
26272;DHT22;13997;48.902;12.472;2023-07-31T11:13:10;640.40;2432.00
26272;DHT22;13997;48.902;12.472;2023-07-31T11:15:36;640.50;2432.00
26272;DHT22;13997;48.902;12.472;2023-07-31T11:18:02;640.60;2432.00
26272;DHT22;13997;48.902;12.472;2023-07-31T11:20:32;640.60;2432.00
26272;DHT22;13997;48.902;12.472;2023-07-31T11:23:00;640.70;2432.00
26272;DHT22;13997;48.902;12.472;2023-07-31T11:25:26;640.90;2432.00
26272;DHT22;13997;48.902;12.472;2023-07-31T11:27:52;640.90;2432.00
26272;DHT22;13997;48.902;12.472;2023-07-31T11:30:19;665.60;2432.00
26272;DHT22;13997;48.902;12.472;2023-07-31T11:32:45;640.90;2432.00
26272;DHT22;13997;48.902;12.472;2023-07-31T11:35:14;665.70;2432.00
26272;DHT22;13997;48.902;12.472;2023-07-31T11:37:43;665.80;2432.00
26272;DHT22;13997;48.902;12.472;2023-07-31T11:40:09;665.80;2432.00
26272;DHT22;13997;48.902;12.472;2023-07-31T11:42:36;665.90;2432.00
26272;DHT22;13997;48.902;12.472;2023-07-31T11:45:05;666.10;2432.00
26272;DHT22;13997;48.902;12.472;2023-07-31T11:47:35;666.10;2432.00
26272;DHT22;13997;48.902;12.472;2023-07-31T11:50:02;666.20;2432.00
26272;DHT22;13997;48.902;12.472;2023-07-31T11:52:36;666.20;2432.00
26272;DHT22;13997;48.902;12.472;2023-07-31T11:55:03;666.10;2432.00
26272;DHT22;13997;48.902;12.472;2023-07-31T11:57:29;666.20;2432.00
26272;DHT22;13997;48.902;12.472;2023-07-31T11:59:57;666.20;2432.00
26272;DHT22;13997;48.902;12.472;2023-07-31T12:02:23;666.40;2432.00
26272;DHT22;13997;48.902;12.472;2023-07-31T12:04:48;666.40;2432.00
26272;DHT22;13997;48.902;12.472;2023-07-31T12:07:14;666.40;2432.00
26272;DHT22;13997;48.902;12.472;2023-07-31T12:09:53;666.40;2432.00
26272;DHT22;13997;48.902;12.472;2023-07-31T12:12:22;666.20;2432.00
26272;DHT22;13997;48.902;12.472;2023-07-31T12:14:48;666.40;2432.00
26272;DHT22;13997;48.902;12.472;2023-07-31T12:17:16;666.50;2432.00
26272;DHT22;13997;48.902;12.472;2023-07-31T12:19:42;666.50;2432.00
26272;DHT22;13997;48.902;12.472;2023-07-31T12:22:12;691.20;2432.00
26272;DHT22;13997;48.902;12.472;2023-07-31T12:24:39;691.20;2432.00
26272;DHT22;13997;48.902;12.472;2023-07-31T12:27:10;691.30;2432.00
26272;DHT22;13997;48.902;12.472;2023-07-31T12:29:36;691.20;2432.00
26272;DHT22;13997;48.902;12.472;2023-07-31T12:32:01;666.30;2432.00
26272;DHT22;13997;48.902;12.472;2023-07-31T12:34:27;666.20;2432.00
26272;DHT22;13997;48.902;12.472;2023-07-31T12:36:53;666.20;2432.00
26272;DHT22;13997;48.902;12.472;2023-07-31T12:39:19;666.30;2432.00
26272;DHT22;13997;48.902;12.472;2023-07-31T12:41:44;666.50;2432.00
26272;DHT22;13997;48.902;12.472;2023-07-31T12:44:10;691.20;2432.00
26272;DHT22;13997;48.902;12.472;2023-07-31T12:46:36;691.20;2432.00
26272;DHT22;13997;48.902;12.472;2023-07-31T12:49:02;691.40;2432.00
26272;DHT22;13997;48.902;12.472;2023-07-31T12:51:27;691.50;2432.00
26272;DHT22;13997;48.902;12.472;2023-07-31T12:53:53;691.40;2432.00
26272;DHT22;13997;48.902;12.472;2023-07-31T12:56:18;691.40;2432.00
26272;DHT22;13997;48.902;12.472;2023-07-31T12:58:44;691.50;2432.00
26272;DHT22;13997;48.902;12.472;2023-07-31T13:01:10;691.40;2432.00
26272;DHT22;13997;48.902;12.472;2023-07-31T13:03:35;691.50;2432.00
26272;DHT22;13997;48.902;12.472;2023-07-31T13:06:01;691.60;2432.00
26272;DHT22;13997;48.902;12.472;2023-07-31T13:08:26;691.70;2432.00
26272;DHT22;13997;48.902;12.472;2023-07-31T13:10:52;691.50;2432.00
26272;DHT22;13997;48.902;12.472;2023-07-31T13:13:18;691.40;2432.00
26272;DHT22;13997;48.902;12.472;2023-07-31T13:15:44;691.40;2432.00
26272;DHT22;13997;48.902;12.472;2023-07-31T13:18:10;691.50;2432.00
26272;DHT22;13997;48.902;12.472;2023-07-31T13:20:35;691.60;2432.00
26272;DHT22;13997;48.902;12.472;2023-07-31T13:23:01;691.40;2432.00
26272;DHT22;13997;48.902;12.472;2023-07-31T13:25:26;691.30;2432.00
26272;DHT22;13997;48.902;12.472;2023-07-31T13:27:52;666.20;2432.00
26272;DHT22;13997;48.902;12.472;2023-07-31T13:30:18;666.10;2432.00
26272;DHT22;13997;48.902;12.472;2023-07-31T13:32:43;666.30;2432.00
26272;DHT22;13997;48.902;12.472;2023-07-31T13:35:09;666.20;2432.00
26272;DHT22;13997;48.902;12.472;2023-07-31T13:37:36;666.10;2432.00
26272;DHT22;13997;48.902;12.472;2023-07-31T13:40:02;665.90;2432.00
26272;DHT22;13997;48.902;12.472;2023-07-31T13:42:30;665.90;2432.00
26272;DHT22;13997;48.902;12.472;2023-07-31T13:44:56;666.10;2432.00
26272;DHT22;13997;48.902;12.472;2023-07-31T13:47:22;666.00;2432.00
26272;DHT22;13997;48.902;12.472;2023-07-31T13:49:47;665.80;2432.00
26272;DHT22;13997;48.902;12.472;2023-07-31T13:52:14;665.90;2432.00
26272;DHT22;13997;48.902;12.472;2023-07-31T13:54:40;666.10;2432.00
26272;DHT22;13997;48.902;12.472;2023-07-31T13:57:05;666.00;2432.00
26272;DHT22;13997;48.902;12.472;2023-07-31T13:59:31;665.80;2432.00
26272;DHT22;13997;48.902;12.472;2023-07-31T14:01:57;666.00;2432.00
26272;DHT22;13997;48.902;12.472;2023-07-31T14:04:22;666.10;2432.00
26272;DHT22;13997;48.902;12.472;2023-07-31T14:06:48;665.90;2432.00
26272;DHT22;13997;48.902;12.472;2023-07-31T14:09:15;665.90;2432.00
26272;DHT22;13997;48.902;12.472;2023-07-31T14:11:41;665.80;2432.00
26272;DHT22;13997;48.902;12.472;2023-07-31T14:14:06;665.70;2432.00
26272;DHT22;13997;48.902;12.472;2023-07-31T14:16:33;665.70;2432.00
26272;DHT22;13997;48.902;12.472;2023-07-31T14:18:59;665.60;2432.00
26272;DHT22;13997;48.902;12.472;2023-07-31T14:21:25;640.80;2432.00
26272;DHT22;13997;48.902;12.472;2023-07-31T14:23:51;640.90;2432.00
26272;DHT22;13997;48.902;12.472;2023-07-31T14:26:17;665.60;2432.00
26272;DHT22;13997;48.902;12.472;2023-07-31T14:28:42;640.90;2432.00
26272;DHT22;13997;48.902;12.472;2023-07-31T14:31:08;665.60;2432.00
26272;DHT22;13997;48.902;12.472;2023-07-31T14:33:33;665.70;2432.00
26272;DHT22;13997;48.902;12.472;2023-07-31T14:35:59;665.70;2432.00
26272;DHT22;13997;48.902;12.472;2023-07-31T14:38:25;665.70;2432.00
26272;DHT22;13997;48.902;12.472;2023-07-31T14:40:51;665.80;2432.00
26272;DHT22;13997;48.902;12.472;2023-07-31T14:43:16;666.00;2432.00
26272;DHT22;13997;48.902;12.472;2023-07-31T14:45:42;666.20;2432.00
26272;DHT22;13997;48.902;12.472;2023-07-31T14:48:08;666.40;2432.00
26272;DHT22;13997;48.902;12.472;2023-07-31T14:50:33;666.50;2432.00
26272;DHT22;13997;48.902;12.472;2023-07-31T14:52:59;691.30;2432.00
26272;DHT22;13997;48.902;12.472;2023-07-31T14:55:25;691.30;2432.00
26272;DHT22;13997;48.902;12.472;2023-07-31T14:57:51;666.50;2432.00